createdAt,value
2018-04-15T00:00:36.626Z,0
2018-04-15T00:01:38.365Z,0
2018-04-15T00:02:40.039Z,0
2018-04-15T00:03:42.448Z,0
2018-04-15T00:04:44.163Z,0
2018-04-15T00:05:46.065Z,0
2018-04-15T00:06:47.837Z,0
2018-04-15T00:07:49.490Z,0
2018-04-15T00:08:51.166Z,0
2018-04-15T00:09:52.917Z,0
2018-04-15T00:10:54.574Z,0
2018-04-15T00:11:56.261Z,0
2018-04-15T00:12:58.002Z,0
2018-04-15T00:13:59.716Z,0
2018-04-15T00:15:01.507Z,0
2018-04-15T00:16:03.247Z,0
2018-04-15T00:17:05.160Z,0
2018-04-15T00:18:06.822Z,0
2018-04-15T00:19:08.732Z,0
2018-04-15T00:20:10.482Z,0
2018-04-15T00:21:12.175Z,0
2018-04-15T00:22:13.891Z,0
2018-04-15T00:23:15.629Z,0
2018-04-15T00:24:17.490Z,0
2018-04-15T00:25:19.238Z,0
2018-04-15T00:26:20.932Z,0
2018-04-15T00:27:22.632Z,0
2018-04-15T00:28:24.563Z,0
2018-04-15T00:29:26.433Z,0
2018-04-15T00:30:28.172Z,0
2018-04-15T00:31:29.928Z,0
2018-04-15T00:32:31.609Z,0
2018-04-15T00:33:33.320Z,0
2018-04-15T00:34:35.048Z,0
2018-04-15T00:35:36.765Z,0
2018-04-15T00:36:38.589Z,0
2018-04-15T00:37:40.337Z,0
2018-04-15T00:38:42.116Z,0
2018-04-15T00:39:43.929Z,0
2018-04-15T00:40:45.607Z,0
2018-04-15T00:41:47.349Z,0
2018-04-15T00:42:49.245Z,0
2018-04-15T00:43:51.012Z,0
2018-04-15T00:44:52.821Z,0
2018-04-15T00:45:54.763Z,0
2018-04-15T00:46:56.560Z,0
2018-04-15T00:47:58.255Z,0
2018-04-15T00:49:00.072Z,0
2018-04-15T00:50:01.875Z,0
2018-04-15T00:51:03.683Z,0
2018-04-15T00:52:05.347Z,0
2018-04-15T00:53:07.128Z,0
2018-04-15T00:54:08.852Z,0
2018-04-15T00:55:10.623Z,0
2018-04-15T00:56:12.375Z,0
2018-04-15T00:57:14.261Z,0
2018-04-15T00:58:16.019Z,0
2018-04-15T00:59:17.780Z,0
2018-04-15T01:00:19.573Z,0
2018-04-15T01:01:21.321Z,0
2018-04-15T01:02:23.104Z,0
2018-04-15T01:03:24.863Z,0
2018-04-15T01:04:26.828Z,0
2018-04-15T01:05:28.623Z,0
2018-04-15T01:06:30.371Z,0
2018-04-15T01:07:32.053Z,0
2018-04-15T01:08:33.794Z,0
2018-04-15T01:09:35.521Z,0
2018-04-15T01:10:37.188Z,0
2018-04-15T01:11:38.888Z,0
2018-04-15T01:12:40.698Z,0
2018-04-15T01:13:42.299Z,0
2018-04-15T01:14:44.069Z,0
2018-04-15T01:15:45.840Z,0
2018-04-15T01:16:47.812Z,0
2018-04-15T01:17:49.613Z,0
2018-04-15T01:18:51.324Z,0
2018-04-15T01:19:53.017Z,0
2018-04-15T01:20:54.785Z,0
2018-04-15T01:21:56.558Z,0
2018-04-15T01:22:58.399Z,0
2018-04-15T01:24:00.190Z,0
2018-04-15T01:25:01.920Z,0
2018-04-15T01:26:03.616Z,0
2018-04-15T01:27:05.335Z,0
2018-04-15T01:28:07.261Z,0
2018-04-15T01:29:08.976Z,0
2018-04-15T01:30:10.722Z,0
2018-04-15T01:31:12.444Z,0
2018-04-15T01:32:14.169Z,0
2018-04-15T01:33:15.953Z,0
2018-04-15T01:34:17.698Z,0
2018-04-15T01:35:19.443Z,0
2018-04-15T01:36:21.248Z,0
2018-04-15T01:37:23.024Z,0
2018-04-15T01:38:24.762Z,0
2018-04-15T01:39:26.526Z,0
2018-04-15T01:40:28.259Z,0
2018-04-15T01:41:29.973Z,0
2018-04-15T01:42:31.740Z,0
2018-04-15T01:43:33.455Z,0
2018-04-15T01:44:35.192Z,0
2018-04-15T01:45:37.135Z,0
2018-04-15T01:46:39.110Z,0
2018-04-15T01:47:40.855Z,0
2018-04-15T01:48:42.558Z,0
2018-04-15T01:49:44.318Z,0
2018-04-15T01:50:46.232Z,0
2018-04-15T01:51:47.881Z,0
2018-04-15T01:52:49.740Z,0
2018-04-15T01:53:51.513Z,0
2018-04-15T01:54:53.286Z,0
2018-04-15T01:55:55.039Z,0
2018-04-15T01:56:56.806Z,0
2018-04-15T01:57:58.546Z,0
2018-04-15T01:59:00.314Z,0
2018-04-15T02:00:02.053Z,0
2018-04-15T02:01:03.709Z,0
2018-04-15T02:02:05.639Z,0
2018-04-15T02:03:07.371Z,0
2018-04-15T02:04:09.164Z,0
2018-04-15T02:05:10.964Z,0
2018-04-15T02:06:12.684Z,0
2018-04-15T02:07:14.447Z,0
2018-04-15T02:08:16.291Z,0
2018-04-15T02:09:18.082Z,0
2018-04-15T02:10:19.828Z,0
2018-04-15T02:11:21.604Z,0
2018-04-15T02:12:23.354Z,0
2018-04-15T02:13:25.188Z,0
2018-04-15T02:14:26.921Z,0
2018-04-15T02:15:28.850Z,0
2018-04-15T02:16:30.809Z,0
2018-04-15T02:17:32.520Z,0
2018-04-15T02:18:34.297Z,0
2018-04-15T02:19:36.236Z,0
2018-04-15T02:20:38.185Z,0
2018-04-15T02:21:40.106Z,0
2018-04-15T02:22:41.906Z,0
2018-04-15T02:23:43.734Z,0
2018-04-15T02:24:45.808Z,0
2018-04-15T02:25:47.591Z,0
2018-04-15T02:26:49.313Z,0
2018-04-15T02:27:51.057Z,0
2018-04-15T02:28:52.747Z,0
2018-04-15T02:29:54.513Z,0
2018-04-15T02:30:56.533Z,0
2018-04-15T02:31:58.273Z,0
2018-04-15T02:32:59.971Z,0
2018-04-15T02:34:01.799Z,0
2018-04-15T02:35:03.482Z,0
2018-04-15T02:36:05.182Z,0
2018-04-15T02:37:06.967Z,0
2018-04-15T02:38:09.092Z,0
2018-04-15T02:39:11.239Z,0
2018-04-15T02:40:13.252Z,0
2018-04-15T02:41:14.986Z,0
2018-04-15T02:42:16.728Z,0
2018-04-15T02:43:18.410Z,0
2018-04-15T02:44:20.125Z,0
2018-04-15T02:45:21.850Z,0
2018-04-15T02:46:23.689Z,0
2018-04-15T02:47:25.377Z,0
2018-04-15T02:48:27.081Z,0
2018-04-15T02:49:28.816Z,0
2018-04-15T02:50:30.712Z,0
2018-04-15T02:51:32.537Z,0
2018-04-15T02:52:34.256Z,0
2018-04-15T02:53:35.995Z,0
2018-04-15T02:54:37.780Z,0
2018-04-15T02:55:39.463Z,0
2018-04-15T02:56:41.208Z,0
2018-04-15T02:57:42.907Z,0
2018-04-15T02:58:44.748Z,0
2018-04-15T02:59:46.669Z,0
2018-04-15T03:00:48.344Z,0
2018-04-15T03:01:50.071Z,0
2018-04-15T03:02:51.768Z,0
2018-04-15T03:03:53.441Z,0
2018-04-15T03:04:55.343Z,0
2018-04-15T03:05:56.993Z,0
2018-04-15T03:06:58.990Z,0
2018-04-15T03:08:00.685Z,0
2018-04-15T03:09:02.535Z,0
2018-04-15T03:10:04.361Z,0
2018-04-15T03:11:05.980Z,0
2018-04-15T03:12:07.764Z,0
2018-04-15T03:13:09.510Z,0
2018-04-15T03:14:11.382Z,0
2018-04-15T03:15:13.158Z,0
2018-04-15T03:16:15.004Z,0
2018-04-15T03:17:16.704Z,0
2018-04-15T03:18:18.384Z,0
2018-04-15T03:19:20.267Z,0
2018-04-15T03:20:22.044Z,0
2018-04-15T03:21:23.723Z,0
2018-04-15T03:22:25.405Z,0
2018-04-15T03:23:27.030Z,0
2018-04-15T03:24:28.699Z,0
2018-04-15T03:25:30.439Z,0
2018-04-15T03:26:32.229Z,0
2018-04-15T03:27:33.841Z,0
2018-04-15T03:28:35.598Z,0
2018-04-15T03:29:37.283Z,0
2018-04-15T03:30:39.026Z,0
2018-04-15T03:31:40.787Z,0
2018-04-15T03:32:42.422Z,0
2018-04-15T03:33:44.152Z,0
2018-04-15T03:34:46.020Z,0
2018-04-15T03:35:47.660Z,0
2018-04-15T03:36:49.359Z,0
2018-04-15T03:37:50.985Z,0
2018-04-15T03:38:52.738Z,0
2018-04-15T03:39:54.396Z,0
2018-04-15T03:40:56.058Z,0
2018-04-15T03:41:57.775Z,0
2018-04-15T03:42:59.471Z,0
2018-04-15T03:44:01.170Z,0
2018-04-15T03:45:02.967Z,0
2018-04-15T03:46:04.759Z,0
2018-04-15T03:47:06.499Z,0
2018-04-15T03:48:08.258Z,0
2018-04-15T03:49:09.929Z,0
2018-04-15T03:50:11.703Z,0
2018-04-15T03:51:13.439Z,0
2018-04-15T03:52:15.189Z,0
2018-04-15T03:53:16.850Z,0
2018-04-15T03:54:18.454Z,0
2018-04-15T03:55:20.101Z,0
2018-04-15T03:56:21.816Z,0
2018-04-15T03:57:23.566Z,0
2018-04-15T03:58:25.310Z,0
2018-04-15T03:59:27.043Z,0
2018-04-15T04:00:28.697Z,0
2018-04-15T04:01:30.383Z,0
2018-04-15T04:02:32.043Z,0
2018-04-15T04:03:33.841Z,0
2018-04-15T04:04:35.543Z,0
2018-04-15T04:05:37.267Z,0
2018-04-15T04:06:39.020Z,0
2018-04-15T04:07:40.711Z,0
2018-04-15T04:08:42.416Z,0
2018-04-15T04:09:44.094Z,0
2018-04-15T04:10:45.921Z,0
2018-04-15T04:11:47.662Z,0
2018-04-15T04:12:49.427Z,0
2018-04-15T04:13:51.174Z,0
2018-04-15T04:14:52.949Z,0
2018-04-15T04:15:54.794Z,0
2018-04-15T04:16:56.468Z,0
2018-04-15T04:17:58.166Z,0
2018-04-15T04:18:59.929Z,0
2018-04-15T04:20:01.532Z,0
2018-04-15T04:21:03.386Z,0
2018-04-15T04:22:05.213Z,0
2018-04-15T04:23:06.852Z,0
2018-04-15T04:24:08.894Z,0
2018-04-15T04:25:10.792Z,0
2018-04-15T04:26:12.415Z,0
2018-04-15T04:27:14.130Z,0
2018-04-15T04:28:15.859Z,0
2018-04-15T04:29:17.594Z,0
2018-04-15T04:30:19.354Z,0
2018-04-15T04:31:21.186Z,0
2018-04-15T04:32:22.995Z,0
2018-04-15T04:33:24.690Z,0
2018-04-15T04:34:26.467Z,0
2018-04-15T04:35:28.213Z,0
2018-04-15T04:36:30.065Z,0
2018-04-15T04:37:31.931Z,0
2018-04-15T04:38:33.649Z,0
2018-04-15T04:39:35.524Z,0
2018-04-15T04:40:37.201Z,0
2018-04-15T04:41:39.154Z,0
2018-04-15T04:42:40.839Z,0
2018-04-15T04:43:42.568Z,0
2018-04-15T04:44:44.299Z,0
2018-04-15T04:45:45.902Z,0
2018-04-15T04:46:47.869Z,0
2018-04-15T04:47:49.686Z,0
2018-04-15T04:48:51.355Z,0
2018-04-15T04:49:53.076Z,0
2018-04-15T04:50:54.785Z,5
2018-04-15T04:51:56.708Z,5
2018-04-15T04:52:58.424Z,5
2018-04-15T04:54:00.186Z,5
2018-04-15T04:55:01.957Z,5
2018-04-15T04:56:03.704Z,5
2018-04-15T04:57:05.343Z,5
2018-04-15T04:58:07.109Z,5
2018-04-15T04:59:08.807Z,5
2018-04-15T05:00:10.621Z,10
2018-04-15T05:01:12.327Z,10
2018-04-15T05:02:14.033Z,5
2018-04-15T05:03:15.753Z,5
2018-04-15T05:04:17.420Z,5
2018-04-15T05:05:19.352Z,5
2018-04-15T05:06:21.060Z,10
2018-04-15T05:07:22.788Z,10
2018-04-15T05:08:24.490Z,10
2018-04-15T05:09:26.344Z,10
2018-04-15T05:10:28.065Z,10
2018-04-15T05:11:30.120Z,10
2018-04-15T05:12:32.249Z,10
2018-04-15T05:13:34.076Z,10
2018-04-15T05:14:35.981Z,10
2018-04-15T05:15:37.816Z,10
2018-04-15T05:16:39.754Z,15
2018-04-15T05:17:41.377Z,15
2018-04-15T05:18:43.348Z,20
2018-04-15T05:19:45.209Z,20
2018-04-15T05:20:47.031Z,20
2018-04-15T05:21:49.210Z,15
2018-04-15T05:22:50.988Z,15
2018-04-15T05:23:52.813Z,15
2018-04-15T05:24:54.570Z,15
2018-04-15T05:25:56.311Z,15
2018-04-15T05:26:58.172Z,15
2018-04-15T05:27:59.986Z,15
2018-04-15T05:29:01.971Z,15
2018-04-15T05:30:03.759Z,15
2018-04-15T05:31:05.513Z,15
2018-04-15T05:32:07.169Z,15
2018-04-15T05:33:09.044Z,15
2018-04-15T05:34:10.832Z,15
2018-04-15T05:35:12.738Z,15
2018-04-15T05:36:14.663Z,15
2018-04-15T05:37:16.572Z,15
2018-04-15T05:38:18.581Z,15
2018-04-15T05:39:20.340Z,15
2018-04-15T05:40:22.083Z,15
2018-04-15T05:41:23.904Z,15
2018-04-15T05:42:25.616Z,15
2018-04-15T05:43:27.372Z,15
2018-04-15T05:44:29.213Z,20
2018-04-15T05:45:31.031Z,20
2018-04-15T05:46:32.772Z,20
2018-04-15T05:47:34.579Z,20
2018-04-15T05:48:36.252Z,20
2018-04-15T05:49:38.201Z,20
2018-04-15T05:50:40.116Z,20
2018-04-15T05:51:41.828Z,25
2018-04-15T05:52:43.620Z,25
2018-04-15T05:53:45.675Z,30
2018-04-15T05:54:47.698Z,30
2018-04-15T05:55:49.366Z,30
2018-04-15T05:56:51.302Z,30
2018-04-15T05:57:53.097Z,30
2018-04-15T05:58:55.181Z,30
2018-04-15T05:59:57.039Z,35
2018-04-15T06:00:58.848Z,40
2018-04-15T06:02:00.807Z,45
2018-04-15T06:03:02.914Z,45
2018-04-15T06:04:04.827Z,45
2018-04-15T06:05:06.784Z,55
2018-04-15T06:06:08.590Z,65
2018-04-15T06:07:10.332Z,70
2018-04-15T06:08:12.100Z,75
2018-04-15T06:09:13.831Z,80
2018-04-15T06:10:15.546Z,85
2018-04-15T06:11:17.252Z,85
2018-04-15T06:12:18.980Z,85
2018-04-15T06:13:20.663Z,90
2018-04-15T06:14:22.766Z,85
2018-04-15T06:15:24.551Z,85
2018-04-15T06:16:26.350Z,90
2018-04-15T06:17:28.132Z,90
2018-04-15T06:18:29.969Z,90
2018-04-15T06:19:31.734Z,85
2018-04-15T06:20:33.470Z,85
2018-04-15T06:21:35.218Z,80
2018-04-15T06:22:37.188Z,80
2018-04-15T06:23:39.151Z,80
2018-04-15T06:24:40.999Z,80
2018-04-15T06:25:42.797Z,80
2018-04-15T06:26:44.859Z,80
2018-04-15T06:27:46.663Z,80
2018-04-15T06:28:48.403Z,80
2018-04-15T06:29:50.419Z,80
2018-04-15T06:30:52.313Z,80
2018-04-15T06:31:54.236Z,75
2018-04-15T06:32:56.151Z,80
2018-04-15T06:33:57.906Z,80
2018-04-15T06:34:59.673Z,85
2018-04-15T06:36:01.328Z,90
2018-04-15T06:37:03.344Z,100
2018-04-15T06:38:05.310Z,100
2018-04-15T06:39:07.065Z,105
2018-04-15T06:40:09.238Z,110
2018-04-15T06:41:10.973Z,115
2018-04-15T06:42:12.641Z,115
2018-04-15T06:43:14.652Z,120
2018-04-15T06:44:16.502Z,120
2018-04-15T06:45:18.251Z,120
2018-04-15T06:46:20.010Z,115
2018-04-15T06:47:21.783Z,110
2018-04-15T06:48:23.622Z,110
2018-04-15T06:49:25.349Z,110
2018-04-15T06:50:27.125Z,110
2018-04-15T06:51:29.046Z,110
2018-04-15T06:52:31.087Z,105
2018-04-15T06:53:32.970Z,105
2018-04-15T06:54:34.982Z,105
2018-04-15T06:55:36.728Z,110
2018-04-15T06:56:38.637Z,115
2018-04-15T06:57:40.601Z,125
2018-04-15T06:58:43.344Z,140
2018-04-15T06:59:45.593Z,150
2018-04-15T07:00:47.608Z,165
2018-04-15T07:01:49.499Z,180
2018-04-15T07:02:51.450Z,185
2018-04-15T07:03:53.389Z,185
2018-04-15T07:04:55.284Z,190
2018-04-15T07:05:57.100Z,200
2018-04-15T07:06:58.884Z,210
2018-04-15T07:08:00.761Z,215
2018-04-15T07:09:03.008Z,225
2018-04-15T07:10:04.804Z,220
2018-04-15T07:11:06.584Z,215
2018-04-15T07:12:08.377Z,215
2018-04-15T07:13:10.105Z,210
2018-04-15T07:14:11.987Z,205
2018-04-15T07:15:13.696Z,200
2018-04-15T07:16:15.402Z,195
2018-04-15T07:17:17.093Z,195
2018-04-15T07:18:18.858Z,205
2018-04-15T07:19:20.592Z,220
2018-04-15T07:20:22.279Z,225
2018-04-15T07:21:24.039Z,230
2018-04-15T07:22:25.759Z,235
2018-04-15T07:23:27.597Z,240
2018-04-15T07:24:29.309Z,230
2018-04-15T07:25:31.109Z,225
2018-04-15T07:26:32.843Z,225
2018-04-15T07:27:34.652Z,220
2018-04-15T07:28:36.357Z,210
2018-04-15T07:29:38.130Z,195
2018-04-15T07:30:39.805Z,185
2018-04-15T07:31:41.490Z,175
2018-04-15T07:32:43.186Z,165
2018-04-15T07:33:45.077Z,155
2018-04-15T07:34:46.745Z,150
2018-04-15T07:35:48.549Z,140
2018-04-15T07:36:50.339Z,140
2018-04-15T07:37:52.129Z,150
2018-04-15T07:38:53.936Z,165
2018-04-15T07:39:55.673Z,195
2018-04-15T07:40:57.350Z,220
2018-04-15T07:41:59.118Z,230
2018-04-15T07:43:00.930Z,220
2018-04-15T07:44:02.577Z,210
2018-04-15T07:45:04.385Z,210
2018-04-15T07:46:06.195Z,215
2018-04-15T07:47:07.825Z,220
2018-04-15T07:48:09.595Z,225
2018-04-15T07:49:11.333Z,210
2018-04-15T07:50:12.984Z,210
2018-04-15T07:51:14.939Z,220
2018-04-15T07:52:16.639Z,240
2018-04-15T07:53:18.446Z,265
2018-04-15T07:54:20.132Z,290
2018-04-15T07:55:21.859Z,305
2018-04-15T07:56:23.606Z,305
2018-04-15T07:57:25.779Z,320
2018-04-15T07:58:27.830Z,330
2018-04-15T07:59:29.578Z,345
2018-04-15T08:00:31.335Z,360
2018-04-15T08:01:33.007Z,375
2018-04-15T08:02:34.809Z,365
2018-04-15T08:03:36.452Z,345
2018-04-15T08:04:38.211Z,325
2018-04-15T08:05:39.971Z,320
2018-04-15T08:06:41.718Z,315
2018-04-15T08:07:43.482Z,315
2018-04-15T08:08:45.129Z,325
2018-04-15T08:09:46.784Z,340
2018-04-15T08:10:48.516Z,370
2018-04-15T08:11:50.256Z,400
2018-04-15T08:12:51.957Z,425
2018-04-15T08:13:53.715Z,435
2018-04-15T08:14:55.434Z,440
2018-04-15T08:15:57.248Z,440
2018-04-15T08:16:59.052Z,435
2018-04-15T08:18:00.834Z,430
2018-04-15T08:19:02.485Z,405
2018-04-15T08:20:04.308Z,425
2018-04-15T08:21:06.039Z,460
2018-04-15T08:22:07.773Z,480
2018-04-15T08:23:09.461Z,485
2018-04-15T08:24:11.251Z,520
2018-04-15T08:25:13.050Z,740
2018-04-15T08:26:14.867Z,515
2018-04-15T08:27:16.626Z,475
2018-04-15T08:28:18.358Z,520
2018-04-15T08:29:20.150Z,455
2018-04-15T08:30:21.916Z,465
2018-04-15T08:31:23.637Z,480
2018-04-15T08:32:25.375Z,510
2018-04-15T08:33:27.168Z,550
2018-04-15T08:34:28.963Z,520
2018-04-15T08:35:30.852Z,560
2018-04-15T08:36:32.814Z,610
2018-04-15T08:37:34.546Z,650
2018-04-15T08:38:36.320Z,690
2018-04-15T08:39:38.109Z,730
2018-04-15T08:40:39.895Z,690
2018-04-15T08:41:41.655Z,750
2018-04-15T08:42:45.436Z,925
2018-04-15T08:43:47.229Z,1125
2018-04-15T08:44:48.920Z,700
2018-04-15T08:45:50.632Z,1045
2018-04-15T08:46:52.524Z,1410
2018-04-15T08:47:54.137Z,840
2018-04-15T08:48:55.849Z,945
2018-04-15T08:49:57.337Z,1340
2018-04-15T08:50:59.036Z,940
2018-04-15T08:52:00.616Z,900
2018-04-15T08:53:02.336Z,975
2018-04-15T08:54:04.796Z,865
2018-04-15T08:55:06.492Z,845
2018-04-15T08:56:08.668Z,870
2018-04-15T08:57:10.449Z,875
2018-04-15T08:58:12.249Z,950
2018-04-15T08:59:14.327Z,1190
2018-04-15T09:00:16.078Z,1135
2018-04-15T09:01:18.172Z,875
2018-04-15T09:02:19.921Z,895
2018-04-15T09:03:22.042Z,865
2018-04-15T09:04:23.724Z,855
2018-04-15T09:05:25.533Z,800
2018-04-15T09:06:27.236Z,810
2018-04-15T09:07:29.051Z,815
2018-04-15T09:08:30.748Z,770
2018-04-15T09:09:33.392Z,800
2018-04-15T09:10:35.936Z,705
2018-04-15T09:11:37.880Z,770
2018-04-15T09:12:39.620Z,695
2018-04-15T09:13:41.431Z,700
2018-04-15T09:14:43.217Z,705
2018-04-15T09:15:45.007Z,690
2018-04-15T09:16:47.089Z,710
2018-04-15T09:17:48.816Z,650
2018-04-15T09:18:50.535Z,510
2018-04-15T09:19:52.294Z,555
2018-04-15T09:20:54.134Z,810
2018-04-15T09:21:55.843Z,690
2018-04-15T09:22:57.695Z,680
2018-04-15T09:23:59.393Z,660
2018-04-15T09:25:01.333Z,500
2018-04-15T09:26:03.165Z,475
2018-04-15T09:27:05.036Z,500
2018-04-15T09:28:07.370Z,595
2018-04-15T09:29:09.180Z,885
2018-04-15T09:30:10.941Z,920
2018-04-15T09:31:12.739Z,1065
2018-04-15T09:32:14.613Z,1280
2018-04-15T09:33:16.533Z,1315
2018-04-15T09:34:18.272Z,1330
2018-04-15T09:35:20.519Z,1295
2018-04-15T09:36:22.750Z,1300
2018-04-15T09:37:25.207Z,970
2018-04-15T09:38:27.028Z,895
2018-04-15T09:39:29.516Z,1395
2018-04-15T09:40:31.182Z,1280
2018-04-15T09:41:32.855Z,1245
2018-04-15T09:42:34.969Z,1315
2018-04-15T09:43:36.756Z,1415
2018-04-15T09:44:38.424Z,1400
2018-04-15T09:45:40.940Z,1360
2018-04-15T09:46:42.835Z,1380
2018-04-15T09:47:44.587Z,1415
2018-04-15T09:48:46.971Z,1390
2018-04-15T09:49:49.350Z,1390
2018-04-15T09:50:51.052Z,1435
2018-04-15T09:51:52.756Z,995
2018-04-15T09:52:55.387Z,1545
2018-04-15T09:53:57.068Z,1425
2018-04-15T09:54:58.944Z,1495
2018-04-15T09:56:00.942Z,1560
2018-04-15T09:57:02.757Z,890
2018-04-15T09:58:04.624Z,1525
2018-04-15T09:59:06.453Z,1500
2018-04-15T10:00:08.258Z,1520
2018-04-15T10:01:10.813Z,720
2018-04-15T10:02:12.430Z,625
2018-04-15T10:03:14.249Z,1495
2018-04-15T10:04:16.102Z,960
2018-04-15T10:05:17.821Z,1425
2018-04-15T10:06:19.613Z,1625
2018-04-15T10:07:21.283Z,700
2018-04-15T10:08:23.600Z,980
2018-04-15T10:09:25.339Z,550
2018-04-15T10:10:27.087Z,550
2018-04-15T10:11:29.215Z,485
2018-04-15T10:12:31.437Z,600
2018-04-15T10:13:33.268Z,660
2018-04-15T10:14:34.964Z,1245
2018-04-15T10:15:37.505Z,1310
2018-04-15T10:16:39.199Z,1375
2018-04-15T10:17:40.975Z,1440
2018-04-15T10:18:42.759Z,1520
2018-04-15T10:19:45.347Z,1560
2018-04-15T10:20:47.548Z,1600
2018-04-15T10:21:49.272Z,1660
2018-04-15T10:22:51.057Z,1770
2018-04-15T10:23:52.847Z,1990
2018-04-15T10:24:54.600Z,3080
2018-04-15T10:25:56.376Z,4990
2018-04-15T10:26:58.156Z,6620
2018-04-15T10:27:59.917Z,7210
2018-04-15T10:29:01.621Z,6125
2018-04-15T10:30:03.376Z,5590
2018-04-15T10:31:05.539Z,5095
2018-04-15T10:32:07.440Z,4890
2018-04-15T10:33:09.268Z,4620
2018-04-15T10:34:11.077Z,4070
2018-04-15T10:35:12.773Z,4400
2018-04-15T10:36:14.558Z,4470
2018-04-15T10:37:16.422Z,4525
2018-04-15T10:38:18.216Z,4100
2018-04-15T10:39:19.992Z,1715
2018-04-15T10:40:21.886Z,4705
2018-04-15T10:41:23.673Z,4160
2018-04-15T10:42:25.482Z,3760
2018-04-15T10:43:27.328Z,4310
2018-04-15T10:44:29.197Z,4380
2018-04-15T10:45:30.984Z,4430
2018-04-15T10:46:32.906Z,4510
2018-04-15T10:47:34.626Z,4515
2018-04-15T10:48:36.272Z,4610
2018-04-15T10:49:38.121Z,4645
2018-04-15T10:50:39.789Z,4790
2018-04-15T10:51:41.608Z,4655
2018-04-15T10:52:43.428Z,4530
2018-04-15T10:53:45.223Z,4665
2018-04-15T10:54:46.995Z,4505
2018-04-15T10:55:48.760Z,4610
2018-04-15T10:56:50.533Z,4395
2018-04-15T10:57:52.313Z,4465
2018-04-15T10:58:54.193Z,4470
2018-04-15T10:59:55.978Z,4505
2018-04-15T11:00:57.706Z,4690
2018-04-15T11:01:59.478Z,5040
2018-04-15T11:03:01.168Z,4995
2018-04-15T11:04:02.966Z,5085
2018-04-15T11:05:04.808Z,4735
2018-04-15T11:06:06.554Z,4865
2018-04-15T11:07:08.307Z,4705
2018-04-15T11:08:10.101Z,4570
2018-04-15T11:09:11.903Z,4630
2018-04-15T11:10:13.653Z,4715
2018-04-15T11:11:15.523Z,4600
2018-04-15T11:12:17.227Z,4345
2018-04-15T11:13:19.053Z,4320
2018-04-15T11:14:20.856Z,4265
2018-04-15T11:15:22.622Z,1265
2018-04-15T11:16:24.441Z,4360
2018-04-15T11:17:26.262Z,4225
2018-04-15T11:18:27.981Z,700
2018-04-15T11:19:29.705Z,4440
2018-04-15T11:20:31.483Z,4240
2018-04-15T11:21:33.323Z,4240
2018-04-15T11:22:35.050Z,4415
2018-04-15T11:23:36.814Z,4280
2018-04-15T11:24:38.685Z,4235
2018-04-15T11:25:40.506Z,1025
2018-04-15T11:26:42.345Z,490
2018-04-15T11:27:44.138Z,1515
2018-04-15T11:28:45.893Z,4295
2018-04-15T11:29:47.640Z,4230
2018-04-15T11:30:49.418Z,4175
2018-04-15T11:31:51.232Z,4255
2018-04-15T11:32:52.993Z,4250
2018-04-15T11:33:54.817Z,4175
2018-04-15T11:34:56.575Z,4275
2018-04-15T11:35:58.404Z,4245
2018-04-15T11:37:00.241Z,4205
2018-04-15T11:38:02.100Z,4235
2018-04-15T11:39:03.883Z,4055
2018-04-15T11:40:05.596Z,4175
2018-04-15T11:41:07.462Z,4185
2018-04-15T11:42:09.401Z,4265
2018-04-15T11:43:11.196Z,4330
2018-04-15T11:44:13.088Z,4195
2018-04-15T11:45:15.020Z,3805
2018-04-15T11:46:16.778Z,640
2018-04-15T11:47:18.640Z,750
2018-04-15T11:48:20.415Z,4425
2018-04-15T11:49:22.202Z,4475
2018-04-15T11:50:24.074Z,4460
2018-04-15T11:51:25.947Z,4510
2018-04-15T11:52:27.684Z,4455
2018-04-15T11:53:29.434Z,4400
2018-04-15T11:54:31.301Z,4330
2018-04-15T11:55:33.167Z,4040
2018-04-15T11:56:34.924Z,590
2018-04-15T11:57:36.707Z,600
2018-04-15T11:58:38.472Z,3480
2018-04-15T11:59:40.268Z,3805
2018-04-15T12:00:42.871Z,4165
2018-04-15T12:01:44.788Z,4165
2018-04-15T12:02:46.668Z,3940
2018-04-15T12:03:48.654Z,3980
2018-04-15T12:04:50.438Z,4105
2018-04-15T12:05:52.273Z,4050
2018-04-15T12:06:54.075Z,4020
2018-04-15T12:07:55.823Z,4050
2018-04-15T12:08:57.648Z,4010
2018-04-15T12:09:59.422Z,4355
2018-04-15T12:11:01.259Z,4315
2018-04-15T12:12:03.092Z,4065
2018-04-15T12:13:04.880Z,3900
2018-04-15T12:14:06.635Z,3685
2018-04-15T12:15:08.407Z,3775
2018-04-15T12:16:10.205Z,4070
2018-04-15T12:17:12.032Z,4075
2018-04-15T12:18:13.871Z,4085
2018-04-15T12:19:15.674Z,4060
2018-04-15T12:20:17.367Z,4195
2018-04-15T12:21:19.219Z,4125
2018-04-15T12:22:21.296Z,4160
2018-04-15T12:23:23.189Z,4180
2018-04-15T12:24:24.952Z,1065
2018-04-15T12:25:26.712Z,1305
2018-04-15T12:26:28.533Z,1030
2018-04-15T12:27:30.251Z,3985
2018-04-15T12:28:32.005Z,4095
2018-04-15T12:29:33.969Z,4040
2018-04-15T12:30:35.816Z,3995
2018-04-15T12:31:37.695Z,4060
2018-04-15T12:32:39.513Z,1905
2018-04-15T12:33:41.406Z,3965
2018-04-15T12:34:43.275Z,3990
2018-04-15T12:35:45.239Z,2780
2018-04-15T12:36:47.103Z,3715
2018-04-15T12:37:49.099Z,3610
2018-04-15T12:38:50.866Z,3255
2018-04-15T12:39:52.677Z,3115
2018-04-15T12:40:54.714Z,810
2018-04-15T12:41:56.476Z,750
2018-04-15T12:42:58.283Z,780
2018-04-15T12:44:00.103Z,785
2018-04-15T12:45:02.005Z,960
2018-04-15T12:46:03.915Z,1035
2018-04-15T12:47:05.755Z,1025
2018-04-15T12:48:07.601Z,2750
2018-04-15T12:49:09.361Z,3040
2018-04-15T12:50:11.100Z,1950
2018-04-15T12:51:12.921Z,950
2018-04-15T12:52:14.776Z,2050
2018-04-15T12:53:16.532Z,1425
2018-04-15T12:54:18.293Z,1065
2018-04-15T12:55:20.244Z,1150
2018-04-15T12:56:22.035Z,1810
2018-04-15T12:57:23.881Z,3735
2018-04-15T12:58:25.682Z,1135
2018-04-15T12:59:27.758Z,1355
2018-04-15T13:00:29.545Z,3675
2018-04-15T13:01:31.447Z,3285
2018-04-15T13:02:33.133Z,3130
2018-04-15T13:03:34.851Z,3055
2018-04-15T13:04:36.746Z,3460
2018-04-15T13:05:38.556Z,3710
2018-04-15T13:06:40.368Z,3480
2018-04-15T13:07:42.221Z,3820
2018-04-15T13:08:43.985Z,3555
2018-04-15T13:09:45.820Z,3555
2018-04-15T13:10:47.587Z,3520
2018-04-15T13:11:49.411Z,3345
2018-04-15T13:12:51.166Z,3225
2018-04-15T13:13:52.927Z,2755
2018-04-15T13:14:54.682Z,2110
2018-04-15T13:15:56.455Z,2360
2018-04-15T13:16:58.302Z,2415
2018-04-15T13:18:00.071Z,2375
2018-04-15T13:19:01.877Z,2515
2018-04-15T13:20:03.645Z,2735
2018-04-15T13:21:05.419Z,2830
2018-04-15T13:22:07.244Z,2635
2018-04-15T13:23:09.065Z,2750
2018-04-15T13:24:10.841Z,3015
2018-04-15T13:25:12.663Z,3075
2018-04-15T13:26:14.458Z,1445
2018-04-15T13:27:16.264Z,2545
2018-04-15T13:28:18.086Z,2760
2018-04-15T13:29:19.868Z,2410
2018-04-15T13:30:21.746Z,1140
2018-04-15T13:31:23.457Z,1130
2018-04-15T13:32:25.245Z,2815
2018-04-15T13:33:27.043Z,2660
2018-04-15T13:34:28.803Z,2800
2018-04-15T13:35:30.567Z,1400
2018-04-15T13:36:32.403Z,2525
2018-04-15T13:37:34.256Z,3105
2018-04-15T13:38:36.107Z,3120
2018-04-15T13:39:37.987Z,2745
2018-04-15T13:40:39.774Z,1130
2018-04-15T13:41:41.541Z,1255
2018-04-15T13:42:43.392Z,2955
2018-04-15T13:43:45.200Z,2715
2018-04-15T13:44:46.988Z,2745
2018-04-15T13:45:48.908Z,2490
2018-04-15T13:46:50.844Z,2205
2018-04-15T13:47:52.719Z,2090
2018-04-15T13:48:54.499Z,2050
2018-04-15T13:49:56.343Z,2045
2018-04-15T13:50:58.361Z,2060
2018-04-15T13:52:00.427Z,2070
2018-04-15T13:53:03.249Z,2285
2018-04-15T13:54:05.121Z,2575
2018-04-15T13:55:07.060Z,2765
2018-04-15T13:56:08.899Z,2975
2018-04-15T13:57:10.613Z,3150
2018-04-15T13:58:13.282Z,3235
2018-04-15T13:59:15.019Z,2915
2018-04-15T14:00:16.779Z,3250
2018-04-15T14:01:18.624Z,3090
2018-04-15T14:02:20.394Z,3185
2018-04-15T14:03:22.194Z,3025
2018-04-15T14:04:23.892Z,2925
2018-04-15T14:05:25.773Z,2670
2018-04-15T14:06:27.572Z,3355
2018-04-15T14:07:29.402Z,3195
2018-04-15T14:08:31.195Z,3145
2018-04-15T14:09:32.907Z,2945
2018-04-15T14:10:34.713Z,2975
2018-04-15T14:11:36.496Z,2755
2018-04-15T14:12:38.183Z,2810
2018-04-15T14:13:39.978Z,3465
2018-04-15T14:14:41.679Z,3345
2018-04-15T14:15:43.494Z,3205
2018-04-15T14:16:45.237Z,3180
2018-04-15T14:17:46.981Z,3355
2018-04-15T14:18:48.763Z,3405
2018-04-15T14:19:50.532Z,3405
2018-04-15T14:20:52.289Z,3290
2018-04-15T14:21:54.126Z,2860
2018-04-15T14:22:55.894Z,2680
2018-04-15T14:23:57.657Z,3325
2018-04-15T14:24:59.390Z,3150
2018-04-15T14:26:01.243Z,3040